Etusivu
METAR-TAF:

METAR-TAF

Lentoasemat :

Aransas County Airport

Rockport, Texas, Yhdysvallat

Leveyspiiri: 28-05-01N, Pituuspiiri: 097-02-47W, korkeus merenpinnasta: 7 m

Tämänhetkinen sää

Tämä raportti tehtiin 41 minuuttia sitten, kello 23.53 UTC
Tuuli 9 kn idästä/kaakosta
Lämpötila 20°C
Kosteus 94%
Ilmanpaine 1014 hPa
Näkyvyys: 8.0 km
Hajanaisia pilviä 2200 ft:n korkeudessa
Hajonneita pilviä 2800 ft:n korkeudessa
Hajonneita pilviä 3600 ft:n korkeudessa
utua

METAR: KRKP 072353Z AUTO 12009KT 5SM BR SCT022 BKN028 BKN036 20/19 A2993 RMK AO2 SLP137 T02000189 10239 20194 53001

Aika: 18:34 (00:34 UTC)


TAF: puuttuu

Säähavainnot ja -ennusteet yli 4000 lentoasemalta (METAR- ja TAF-raportit).

Käytössä olevat sääasemat on merkitty karttaan keltaisilla ja punaisilla pisteillä.

Aseta hiiri pisteen päälle nähdäksesi sääaseman nimen.

Klikkaa sitten nähdäksesi säähavainnot ja -ennusteet.

Kartan vaihtaminen: klikkaa mustalla rastilla varustettuja vihreitä pisteitä, niin voit zoomata sisään; viivalla varustettua vihreää pistettä, niin voit zoomata ulos tai vihreitä nuolia, niin pääset viereisille kartoille.


METAR-TAF: